createdAt,value
2023-03-26T00:01:33.954Z,9.30
2023-03-26T00:04:01.828Z,9.30
2023-03-26T00:06:34.981Z,9.10
2023-03-26T00:09:02.463Z,9.10
2023-03-26T00:11:30.503Z,9.10
2023-03-26T00:13:58.762Z,9.10
2023-03-26T00:16:29.173Z,8.90
2023-03-26T00:18:57.832Z,9.40
2023-03-26T00:21:28.197Z,9.00
2023-03-26T00:23:58.640Z,9.00
2023-03-26T00:26:27.767Z,9.20
2023-03-26T00:28:55.246Z,9.10
2023-03-26T00:31:22.837Z,8.90
2023-03-26T00:33:55.811Z,8.80
2023-03-26T00:36:26.940Z,8.60
2023-03-26T00:38:55.320Z,7.70
2023-03-26T00:41:31.065Z,8.90
2023-03-26T00:44:00.916Z,8.90
2023-03-26T00:46:33.534Z,8.80
2023-03-26T00:49:02.087Z,8.60
2023-03-26T00:51:30.115Z,8.70
2023-03-26T00:53:58.138Z,8.80
2023-03-26T00:56:26.283Z,8.50
2023-03-26T00:58:53.666Z,8.30
2023-03-26T01:01:27.842Z,8.70
2023-03-26T01:04:08.891Z,8.60
2023-03-26T01:06:41.570Z,7.70
2023-03-26T01:09:19.038Z,8.50
2023-03-26T01:11:49.078Z,9.60
2023-03-26T01:14:27.046Z,8.50
2023-03-26T01:17:00.560Z,8.40
2023-03-26T01:20:05.880Z,8.50
2023-03-26T01:22:37.854Z,8.30
2023-03-26T01:25:05.676Z,8.40
2023-03-26T01:27:39.111Z,8.50
2023-03-26T01:31:01.525Z,8.40
2023-03-26T01:33:49.338Z,8.20
2023-03-26T01:36:32.523Z,8.40
2023-03-26T01:39:11.508Z,8.50
2023-03-26T01:41:58.381Z,8.50
2023-03-26T01:44:34.873Z,8.40
2023-03-26T01:47:03.490Z,8.40
2023-03-26T01:49:33.846Z,8.50
2023-03-26T01:52:01.321Z,8.70
2023-03-26T01:54:31.557Z,8.50
2023-03-26T01:57:26.656Z,8.50
2023-03-26T02:00:19.079Z,8.50
2023-03-26T02:03:04.979Z,8.50
2023-03-26T02:05:50.127Z,8.50
2023-03-26T02:08:37.441Z,8.20
2023-03-26T02:11:13.196Z,8.20
2023-03-26T02:13:43.794Z,8.30
2023-03-26T02:16:18.747Z,8.10
2023-03-26T02:18:51.442Z,8.30
2023-03-26T02:21:21.936Z,8.10
2023-03-26T02:24:03.503Z,8.20
2023-03-26T02:26:35.954Z,7.90
2023-03-26T02:29:10.140Z,8.10
2023-03-26T02:31:39.847Z,8.10
2023-03-26T02:34:07.615Z,8.20
2023-03-26T02:36:37.619Z,7.90
2023-03-26T02:39:09.470Z,8.20
2023-03-26T02:41:38.953Z,8.20
2023-03-26T02:44:09.874Z,8.20
2023-03-26T02:46:57.407Z,8.10
2023-03-26T02:49:43.823Z,8.20
2023-03-26T02:52:18.875Z,8.00
2023-03-26T02:54:48.624Z,8.10
2023-03-26T02:57:25.441Z,8.20
2023-03-26T03:00:06.047Z,8.10
2023-03-26T03:02:54.355Z,8.20
2023-03-26T03:05:34.799Z,8.20
2023-03-26T03:08:26.393Z,8.20
2023-03-26T03:11:16.105Z,8.20
2023-03-26T03:13:48.719Z,8.20
2023-03-26T03:16:20.270Z,8.10
2023-03-26T03:18:54.802Z,8.30
2023-03-26T03:21:24.959Z,8.00
2023-03-26T03:23:54.950Z,7.80
2023-03-26T03:26:30.211Z,8.20
2023-03-26T03:29:02.089Z,7.90
2023-03-26T03:31:29.656Z,8.00
2023-03-26T03:34:03.027Z,7.90
2023-03-26T03:36:38.569Z,7.70
2023-03-26T03:39:18.788Z,7.80
2023-03-26T03:41:46.581Z,7.80
2023-03-26T03:44:16.048Z,7.80
2023-03-26T03:46:43.822Z,7.70
2023-03-26T03:49:11.428Z,7.80
2023-03-26T03:51:38.909Z,7.70
2023-03-26T03:54:15.551Z,7.70
2023-03-26T03:56:47.436Z,7.60
2023-03-26T03:59:53.465Z,7.50
2023-03-26T04:02:30.548Z,7.60
2023-03-26T04:05:04.166Z,7.60
2023-03-26T04:07:32.905Z,7.40
2023-03-26T04:10:08.336Z,7.50
2023-03-26T04:12:54.221Z,7.40
2023-03-26T04:15:36.718Z,7.30
2023-03-26T04:18:04.542Z,7.40
2023-03-26T04:20:35.554Z,7.40
2023-03-26T04:23:04.452Z,7.40
2023-03-26T04:25:33.544Z,7.30
2023-03-26T04:28:35.781Z,7.30
2023-03-26T04:31:18.447Z,7.20
2023-03-26T04:33:47.816Z,7.10
2023-03-26T04:36:18.514Z,7.10
2023-03-26T04:38:52.225Z,7.10
2023-03-26T04:41:28.117Z,7.70
2023-03-26T04:44:06.138Z,8.10
2023-03-26T04:46:53.722Z,7.10
2023-03-26T04:49:29.462Z,6.50
2023-03-26T04:51:57.145Z,7.00
2023-03-26T04:54:46.137Z,7.10
2023-03-26T04:57:24.350Z,6.90
2023-03-26T05:00:19.581Z,7.00
2023-03-26T05:02:56.139Z,7.10
2023-03-26T05:05:25.534Z,7.00
2023-03-26T05:07:54.083Z,7.10
2023-03-26T05:10:22.971Z,7.10
2023-03-26T05:12:58.655Z,7.10
2023-03-26T05:15:28.798Z,7.10
2023-03-26T05:18:22.486Z,7.10
2023-03-26T05:20:53.203Z,5.70
2023-03-26T05:23:23.728Z,7.20
2023-03-26T05:26:00.440Z,7.20
2023-03-26T05:28:28.679Z,7.20
2023-03-26T05:31:03.298Z,7.10
2023-03-26T05:33:35.765Z,7.40
2023-03-26T05:36:19.363Z,6.90
2023-03-26T05:38:52.493Z,7.60
2023-03-26T05:41:39.796Z,7.90
2023-03-26T05:44:07.378Z,7.80
2023-03-26T05:46:34.992Z,7.90
2023-03-26T05:49:02.592Z,8.50
2023-03-26T05:51:33.962Z,8.00
2023-03-26T05:54:21.598Z,8.10
2023-03-26T05:57:09.296Z,8.10
2023-03-26T05:59:56.429Z,8.10
2023-03-26T06:02:43.055Z,7.80
2023-03-26T06:05:37.551Z,8.10
2023-03-26T06:08:27.846Z,8.20
2023-03-26T06:11:04.152Z,8.20
2023-03-26T06:13:35.444Z,8.30
2023-03-26T06:16:03.054Z,8.40
2023-03-26T06:18:36.792Z,8.50
2023-03-26T06:21:22.532Z,8.40
2023-03-26T06:24:13.044Z,8.30
2023-03-26T06:27:09.371Z,8.80
2023-03-26T06:30:09.842Z,8.90
2023-03-26T06:33:12.428Z,9.00
2023-03-26T06:35:46.345Z,9.20
2023-03-26T06:38:19.351Z,9.30
2023-03-26T06:40:46.961Z,9.60
2023-03-26T06:43:35.724Z,9.70
2023-03-26T06:46:21.672Z,9.80
2023-03-26T06:49:15.076Z,9.90
2023-03-26T06:51:53.282Z,10.20
2023-03-26T06:54:46.930Z,10.00
2023-03-26T06:57:37.752Z,10.00
2023-03-26T07:00:31.282Z,10.30
2023-03-26T07:03:17.444Z,10.00
2023-03-26T07:06:03.793Z,10.20
2023-03-26T07:08:49.565Z,10.60
2023-03-26T07:11:37.203Z,10.60
2023-03-26T07:14:24.553Z,10.70
2023-03-26T07:17:10.919Z,10.90
2023-03-26T07:20:01.672Z,11.10
2023-03-26T07:22:35.697Z,10.90
2023-03-26T07:25:09.861Z,11.10
2023-03-26T07:28:09.093Z,11.20
2023-03-26T07:31:27.170Z,11.30
2023-03-26T07:34:56.841Z,11.50
2023-03-26T07:38:03.886Z,11.50
2023-03-26T07:41:01.627Z,11.60
2023-03-26T07:44:02.910Z,11.70
2023-03-26T07:46:53.669Z,11.80
2023-03-26T07:49:44.873Z,12.00
2023-03-26T07:52:26.800Z,12.20
2023-03-26T07:55:00.329Z,12.40
2023-03-26T07:57:51.940Z,12.60
2023-03-26T08:01:03.584Z,12.70
2023-03-26T08:03:48.087Z,12.90
2023-03-26T08:06:37.977Z,13.00
2023-03-26T08:10:01.230Z,12.80
2023-03-26T08:13:10.366Z,12.80
2023-03-26T08:15:54.268Z,12.70
2023-03-26T08:18:59.596Z,12.70
2023-03-26T08:21:38.182Z,12.70
2023-03-26T08:24:13.485Z,12.80
2023-03-26T08:27:05.588Z,12.90
2023-03-26T08:29:36.420Z,13.10
2023-03-26T08:32:09.254Z,12.90
2023-03-26T08:34:36.382Z,12.90
2023-03-26T08:37:04.615Z,13.00
2023-03-26T08:39:32.433Z,12.90
2023-03-26T08:42:27.545Z,13.00
2023-03-26T08:45:21.437Z,13.10
2023-03-26T08:48:10.290Z,13.10
2023-03-26T08:50:50.123Z,11.80
2023-03-26T08:53:49.988Z,13.30
2023-03-26T08:56:26.381Z,13.80
2023-03-26T08:59:47.212Z,14.40
2023-03-26T09:02:30.013Z,14.30
2023-03-26T09:05:26.751Z,14.20
2023-03-26T09:08:09.074Z,14.00
2023-03-26T09:11:06.846Z,13.90
2023-03-26T09:14:11.919Z,14.60
2023-03-26T09:17:13.024Z,14.90
2023-03-26T09:20:15.559Z,15.20
2023-03-26T09:23:01.746Z,14.80
2023-03-26T09:25:44.736Z,14.70
2023-03-26T09:28:40.974Z,14.70
2023-03-26T09:31:30.150Z,15.00
2023-03-26T09:34:30.326Z,15.20
2023-03-26T09:37:26.756Z,15.60
2023-03-26T09:40:13.034Z,15.40
2023-03-26T09:43:03.221Z,15.20
2023-03-26T09:45:45.579Z,14.90
2023-03-26T09:48:54.216Z,15.20
2023-03-26T09:51:33.787Z,15.30
2023-03-26T09:54:28.609Z,15.70
2023-03-26T09:57:17.830Z,15.70
2023-03-26T10:00:00.542Z,15.80
2023-03-26T10:02:46.925Z,15.00
2023-03-26T10:05:42.787Z,14.70
2023-03-26T10:08:23.621Z,14.50
2023-03-26T10:11:12.278Z,14.70
2023-03-26T10:13:54.916Z,14.60
2023-03-26T10:16:46.560Z,14.40
2023-03-26T10:19:35.095Z,14.50
2023-03-26T10:22:09.870Z,15.30
2023-03-26T10:24:47.777Z,15.80
2023-03-26T10:27:39.542Z,15.60
2023-03-26T10:30:37.384Z,15.30
2023-03-26T10:33:29.245Z,15.20
2023-03-26T10:36:29.962Z,14.60
2023-03-26T10:39:36.005Z,14.40
2023-03-26T10:42:05.755Z,14.50
2023-03-26T10:45:09.816Z,14.60
2023-03-26T10:47:46.368Z,14.60
2023-03-26T10:50:41.120Z,14.70
2023-03-26T10:53:42.469Z,14.80
2023-03-26T10:56:34.898Z,15.00
2023-03-26T10:59:08.378Z,15.40
2023-03-26T11:02:10.109Z,15.10
2023-03-26T11:04:48.865Z,14.80
2023-03-26T11:07:38.623Z,14.40
2023-03-26T11:10:16.112Z,14.20
2023-03-26T11:12:54.516Z,14.30
2023-03-26T11:15:36.285Z,14.50
2023-03-26T11:18:35.753Z,14.70
2023-03-26T11:21:18.461Z,14.80
2023-03-26T11:24:25.598Z,15.10
2023-03-26T11:27:15.354Z,15.50
2023-03-26T11:29:59.620Z,15.00
2023-03-26T11:32:50.547Z,15.00
2023-03-26T11:35:41.761Z,15.40
2023-03-26T11:38:27.369Z,15.90
2023-03-26T11:40:57.068Z,16.90
2023-03-26T11:43:55.626Z,17.40
2023-03-26T11:46:26.178Z,17.40
2023-03-26T11:48:59.684Z,17.10
2023-03-26T11:51:33.882Z,16.70
2023-03-26T11:54:03.320Z,16.90
2023-03-26T11:56:35.231Z,16.80
2023-03-26T11:59:33.866Z,17.30
2023-03-26T12:02:05.699Z,17.10
2023-03-26T12:04:51.268Z,16.90
2023-03-26T12:07:32.129Z,17.30
2023-03-26T12:10:18.615Z,17.40
2023-03-26T12:12:48.443Z,17.60
2023-03-26T12:15:19.209Z,17.70
2023-03-26T12:17:48.754Z,17.60
2023-03-26T12:20:36.173Z,17.80
2023-03-26T12:23:06.911Z,17.30
2023-03-26T12:25:39.207Z,17.00
2023-03-26T12:28:17.545Z,17.60
2023-03-26T12:30:54.398Z,17.90
2023-03-26T12:33:35.473Z,17.80
2023-03-26T12:36:24.977Z,17.70
2023-03-26T12:39:16.715Z,17.20
2023-03-26T12:42:52.597Z,16.60
2023-03-26T12:44:58.756Z,16.40
2023-03-26T12:47:57.723Z,16.70
2023-03-26T12:50:34.333Z,17.10
2023-03-26T12:53:24.554Z,17.70
2023-03-26T12:56:02.444Z,17.90
2023-03-26T12:58:51.213Z,17.40
2023-03-26T13:01:45.750Z,17.30
2023-03-26T13:04:13.768Z,17.80
2023-03-26T13:07:01.430Z,18.10
2023-03-26T13:09:37.845Z,18.20
2023-03-26T13:12:41.163Z,18.40
2023-03-26T13:15:14.103Z,18.50
2023-03-26T13:18:19.166Z,18.00
2023-03-26T13:20:58.776Z,18.10
2023-03-26T13:23:59.783Z,17.70
2023-03-26T13:26:48.308Z,17.40
2023-03-26T13:29:22.009Z,17.20
2023-03-26T13:31:56.053Z,17.30
2023-03-26T13:34:33.592Z,17.60
2023-03-26T13:37:25.364Z,18.00
2023-03-26T13:40:37.576Z,18.10
2023-03-26T13:43:26.205Z,18.00
2023-03-26T13:46:10.380Z,17.50
2023-03-26T13:48:48.653Z,17.40
2023-03-26T13:51:22.857Z,17.40
2023-03-26T13:54:00.955Z,17.40
2023-03-26T13:56:41.482Z,17.30
2023-03-26T13:59:19.847Z,17.10
2023-03-26T14:02:11.215Z,17.20
2023-03-26T14:04:49.180Z,17.30
2023-03-26T14:07:25.354Z,17.20
2023-03-26T14:09:58.220Z,17.10
2023-03-26T14:12:51.362Z,17.00
2023-03-26T14:15:47.609Z,17.20
2023-03-26T14:18:39.991Z,17.20
2023-03-26T14:21:25.819Z,17.20
2023-03-26T14:23:53.906Z,17.10
2023-03-26T14:26:25.624Z,16.90
2023-03-26T14:29:13.865Z,17.10
2023-03-26T14:32:02.916Z,17.10
2023-03-26T14:34:38.813Z,17.20
2023-03-26T14:37:27.045Z,17.30
2023-03-26T14:40:17.293Z,17.30
2023-03-26T14:43:20.699Z,17.40
2023-03-26T14:46:29.588Z,17.00
2023-03-26T14:49:22.066Z,17.00
2023-03-26T14:52:04.054Z,17.00
2023-03-26T14:54:35.915Z,17.00
2023-03-26T14:57:21.735Z,16.70
2023-03-26T15:00:07.777Z,16.50
2023-03-26T15:03:09.600Z,16.40
2023-03-26T15:05:48.419Z,16.40
2023-03-26T15:08:38.122Z,16.40
2023-03-26T15:11:31.794Z,16.40
2023-03-26T15:14:37.195Z,16.50
2023-03-26T15:17:58.653Z,16.70
2023-03-26T15:20:58.067Z,16.60
2023-03-26T15:23:58.025Z,16.60
2023-03-26T15:26:57.912Z,16.30
2023-03-26T15:30:13.201Z,16.20
2023-03-26T15:33:03.964Z,16.20
2023-03-26T15:35:57.770Z,16.30
2023-03-26T15:38:46.524Z,16.30
2023-03-26T15:41:19.196Z,16.20
2023-03-26T15:46:38.554Z,16.00
2023-03-26T15:49:14.890Z,16.00
2023-03-26T15:52:06.516Z,15.90
2023-03-26T15:55:01.517Z,15.80
2023-03-26T15:57:45.087Z,15.70
2023-03-26T16:00:29.676Z,15.70
2023-03-26T16:03:09.696Z,15.60
2023-03-26T16:06:16.379Z,15.50
2023-03-26T16:09:05.168Z,15.40
2023-03-26T16:11:55.155Z,15.50
2023-03-26T16:14:35.627Z,15.30
2023-03-26T16:17:08.105Z,15.30
2023-03-26T16:19:47.961Z,15.20
2023-03-26T16:22:49.926Z,15.10
2023-03-26T16:25:27.087Z,15.10
2023-03-26T16:28:28.070Z,15.00
2023-03-26T16:31:36.013Z,14.80
2023-03-26T16:34:41.556Z,14.80
2023-03-26T16:37:41.145Z,14.60
2023-03-26T16:40:18.187Z,14.50
2023-03-26T16:43:11.183Z,14.50
2023-03-26T16:45:50.544Z,14.40
2023-03-26T16:48:25.003Z,14.30
2023-03-26T16:51:17.474Z,14.20
2023-03-26T16:54:00.390Z,14.20
2023-03-26T16:56:41.611Z,14.10
2023-03-26T16:59:37.305Z,14.10
2023-03-26T17:02:32.295Z,14.00
2023-03-26T17:05:21.473Z,13.90
2023-03-26T17:08:08.217Z,13.80
2023-03-26T17:10:47.866Z,13.80
2023-03-26T17:13:27.689Z,13.70
2023-03-26T17:16:36.758Z,13.60
2023-03-26T17:19:17.110Z,13.50
2023-03-26T17:22:11.766Z,13.50
2023-03-26T17:25:05.133Z,13.50
2023-03-26T17:28:24.991Z,13.40
2023-03-26T17:30:53.251Z,13.30
2023-03-26T17:33:27.400Z,13.30
2023-03-26T17:36:13.444Z,13.30
2023-03-26T17:38:45.426Z,13.20
2023-03-26T17:41:18.273Z,13.20
2023-03-26T17:43:48.884Z,13.20
2023-03-26T17:46:26.458Z,13.10
2023-03-26T17:49:07.452Z,13.10
2023-03-26T17:51:51.347Z,13.10
2023-03-26T17:54:35.991Z,13.00
2023-03-26T17:57:28.416Z,13.00
2023-03-26T18:00:01.944Z,13.00
2023-03-26T18:02:42.878Z,12.90
2023-03-26T18:05:15.333Z,12.80
2023-03-26T18:07:58.181Z,12.80
2023-03-26T18:10:39.464Z,12.80
2023-03-26T18:13:40.020Z,12.70
2023-03-26T18:16:08.124Z,12.70
2023-03-26T18:18:51.451Z,12.70
2023-03-26T18:21:35.266Z,12.70
2023-03-26T18:24:08.252Z,12.70
2023-03-26T18:26:41.762Z,12.60
2023-03-26T18:29:35.813Z,12.60
2023-03-26T18:32:23.442Z,12.50
2023-03-26T18:34:59.381Z,12.50
2023-03-26T18:37:36.899Z,12.50
2023-03-26T18:40:22.832Z,12.40
2023-03-26T18:42:53.797Z,12.40
2023-03-26T18:45:38.357Z,12.40
2023-03-26T18:48:21.356Z,12.40
2023-03-26T18:50:57.274Z,12.50
2023-03-26T18:53:30.524Z,12.50
2023-03-26T18:55:59.682Z,12.50
2023-03-26T18:58:36.259Z,12.50
2023-03-26T19:01:19.959Z,12.50
2023-03-26T19:03:54.608Z,12.50
2023-03-26T19:06:24.168Z,12.50
2023-03-26T19:08:53.627Z,12.40
2023-03-26T19:11:24.167Z,12.40
2023-03-26T19:14:05.118Z,12.40
2023-03-26T19:16:36.282Z,12.40
2023-03-26T19:19:07.911Z,12.40
2023-03-26T19:21:37.609Z,12.40
2023-03-26T19:24:09.489Z,12.40
2023-03-26T19:26:38.069Z,12.40
2023-03-26T19:29:08.008Z,12.40
2023-03-26T19:31:38.931Z,12.30
2023-03-26T19:34:14.324Z,12.30
2023-03-26T19:37:03.488Z,12.30
2023-03-26T19:39:39.509Z,12.30
2023-03-26T19:42:14.065Z,12.30
2023-03-26T19:44:44.448Z,12.30
2023-03-26T19:47:35.219Z,12.30
2023-03-26T19:50:29.947Z,12.20
2023-03-26T19:53:19.361Z,12.20
2023-03-26T19:55:58.705Z,12.20
2023-03-26T19:58:29.069Z,12.20
2023-03-26T20:00:57.406Z,12.20
2023-03-26T20:03:30.873Z,12.20
2023-03-26T20:05:59.482Z,12.30
2023-03-26T20:08:27.477Z,12.30
2023-03-26T20:10:57.512Z,12.30
2023-03-26T20:13:25.888Z,12.30
2023-03-26T20:16:06.385Z,12.30
2023-03-26T20:18:35.552Z,12.30
2023-03-26T20:21:10.151Z,12.20
2023-03-26T20:23:39.696Z,12.20
2023-03-26T20:26:15.119Z,12.10
2023-03-26T20:28:48.242Z,12.20
2023-03-26T20:31:25.617Z,12.30
2023-03-26T20:33:54.671Z,12.10
2023-03-26T20:36:32.983Z,12.10
2023-03-26T20:39:08.165Z,12.00
2023-03-26T20:41:39.866Z,11.50
2023-03-26T20:44:16.847Z,12.00
2023-03-26T20:46:46.539Z,12.10
2023-03-26T20:49:15.269Z,12.00
2023-03-26T20:51:43.826Z,12.00
2023-03-26T20:54:24.926Z,12.10
2023-03-26T20:56:58.435Z,12.10
2023-03-26T20:59:28.070Z,12.10
2023-03-26T21:01:59.558Z,12.30
2023-03-26T21:04:27.742Z,12.10
2023-03-26T21:07:03.233Z,12.20
2023-03-26T21:09:38.854Z,12.10
2023-03-26T21:12:09.948Z,12.10
2023-03-26T21:14:42.151Z,12.20
2023-03-26T21:17:16.212Z,11.30
2023-03-26T21:19:44.167Z,11.90
2023-03-26T21:22:17.395Z,12.10
2023-03-26T21:24:54.763Z,12.10
2023-03-26T21:27:37.413Z,12.10
2023-03-26T21:30:16.898Z,12.10
2023-03-26T21:32:45.575Z,12.10
2023-03-26T21:35:14.799Z,12.10
2023-03-26T21:37:44.196Z,12.00
2023-03-26T21:40:14.678Z,12.00
2023-03-26T21:42:43.065Z,11.90
2023-03-26T21:45:10.721Z,11.90
2023-03-26T21:47:38.898Z,11.80
2023-03-26T21:50:06.822Z,11.80
2023-03-26T21:52:34.485Z,11.80
2023-03-26T21:55:03.725Z,11.80
2023-03-26T21:57:50.792Z,11.70
2023-03-26T22:00:19.314Z,11.30
2023-03-26T22:02:52.394Z,11.70
2023-03-26T22:05:36.435Z,11.60
2023-03-26T22:08:07.360Z,11.60
2023-03-26T22:10:34.801Z,11.50
2023-03-26T22:13:02.151Z,11.40
2023-03-26T22:15:32.031Z,11.30
2023-03-26T22:18:03.991Z,11.30
2023-03-26T22:20:34.186Z,11.30
2023-03-26T22:23:01.941Z,11.30
2023-03-26T22:25:32.341Z,11.30
2023-03-26T22:28:05.341Z,11.50
2023-03-26T22:30:33.608Z,11.50
2023-03-26T22:33:03.547Z,11.40
2023-03-26T22:35:31.295Z,11.40
2023-03-26T22:38:00.735Z,11.40
2023-03-26T22:40:28.914Z,11.40
2023-03-26T22:42:56.779Z,11.20
2023-03-26T22:45:24.118Z,11.40
2023-03-26T22:47:53.623Z,11.30
2023-03-26T22:50:30.725Z,11.30
2023-03-26T22:52:58.075Z,11.20
2023-03-26T22:55:28.817Z,11.20
2023-03-26T22:57:57.661Z,11.10
2023-03-26T23:00:26.552Z,11.30
2023-03-26T23:02:56.044Z,11.30
2023-03-26T23:05:25.980Z,11.20
2023-03-26T23:07:56.034Z,11.20
2023-03-26T23:10:24.159Z,11.20
2023-03-26T23:12:52.614Z,11.00
2023-03-26T23:15:20.759Z,11.00
2023-03-26T23:17:54.543Z,11.00
2023-03-26T23:20:22.558Z,11.10
2023-03-26T23:22:52.840Z,11.20
2023-03-26T23:25:20.238Z,10.90
2023-03-26T23:27:48.599Z,11.10
2023-03-26T23:30:16.922Z,11.10
2023-03-26T23:32:44.184Z,11.00
2023-03-26T23:35:11.554Z,11.10
2023-03-26T23:37:43.563Z,11.00
2023-03-26T23:40:17.268Z,11.00
2023-03-26T23:42:47.709Z,11.10
2023-03-26T23:45:16.674Z,11.20
2023-03-26T23:47:44.901Z,11.10
2023-03-26T23:50:13.133Z,10.90
2023-03-26T23:52:40.480Z,10.40
2023-03-26T23:55:08.620Z,10.90
2023-03-26T23:57:37.173Z,10.90
